Aérodrome :
LOGIN :

S'inscrire | Disclaimer

   EN    FR    IT 

 










Légende :    VFR   VFR Marginal   IFR   IFR Intensif   IFR Très Intensif
Visi : 
Plafond : 
>= 8 km
>= 3000ft
5 à 8 km
1000 à 3000 ft
1500m à 5 km
500 à 1000 ft
800 à 1500m
200 à 500 ft
< 800m
< 200 ft
Symboles :   Orages  Brouillard  Fortes neiges  Fortes précipitations  Vent > 20 kt
SIGMETs :   Divers  Orages  Givrage  Turbulence  Onde Orograph.  Cendres Volcan.






- Altitude de l'aérodrome : 102 ft
- Code IATA : EXT


EGTE - Exeter

DERNIER METAR :
  • 271120Z 31018KT 9999 SCT025 07/02 Q1004

METARs EXPIRÉS :
  • 271050Z 31019KT 9999 SCT025 06/02 Q1003
  • 271020Z 32017KT 9999 SCT023 06/02 Q1002
  • 270950Z 32018KT 9999 SCT022 05/02 Q1001
  • 270920Z 31007KT 280V340 9999 FEW010 SCT020 04/02 Q1000
  • 270850Z 32009KT 9999 FEW010 BKN017 04/03 Q0999

TAF AMD TAF EGTE
Valide du 27 à 10h jusqu'au 27 à 18h UTC


270954Z 2710/2718 33016G26KT 9999 SCT020
BECMG 2710/2712 FEW045
BECMG 2715/2717 32013KT



MET'MAP, la Météo Aéronautique d'un coup d'oeil ! - Copyright ORBIFLY Décembre 2007 - Disclaimer

ORBIFLY MET'MAP TEAM :

Programmation & Développement : Alexandra Zaïnal
Sur une idée originale de : Baudouin d'Aumeries
Assistance à la programmation : Marc-Olivier Méhu
Soutien technique & logistique : Manuel Goepfert

Contact : metmap@orbifly.com




SOURCES & CREDITS :

   NOAA